Time;durP1;ratioP1;P1;durP2;ratioP2;P2;SDS_P1;SDS_P2;PMS_P1;PMS_P2;Temp;Humidity;BMP_temperature;BMP_pressure;BME280_temperature;BME280_humidity;BME280_pressure;Samples;Min_cycle;Max_cycle;Signal;HPM_P1;HPM_P2
2023/10/10 00:02:18;;;;;;;13.93;8.80;;;15.70;99.90;;;;;;4896567;29;20665;-72
2023/10/10 00:04:47;;;;;;;19.90;8.88;;;15.70;99.90;;;;;;4896510;29;20263;-71
2023/10/10 00:07:14;;;;;;;22.50;9.35;;;15.70;99.90;;;;;;4895757;29;20216;-72
2023/10/10 00:09:44;;;;;;;18.60;10.25;;;15.70;99.90;;;;;;4895443;29;20261;-72
2023/10/10 00:12:18;;;;;;;19.40;9.63;;;15.70;99.90;;;;;;4896287;29;20204;-73
2023/10/10 00:14:50;;;;;;;16.92;10.18;;;15.60;99.90;;;;;;4894899;29;20196;-73
2023/10/10 00:17:22;;;;;;;16.80;9.80;;;15.70;99.90;;;;;;4895782;29;20180;-72
2023/10/10 00:19:54;;;;;;;17.75;9.80;;;15.70;99.90;;;;;;4896367;29;20588;-73
2023/10/10 00:22:30;;;;;;;21.92;9.90;;;15.70;99.90;;;;;;4896329;29;20617;-72
2023/10/10 00:24:56;;;;;;;21.23;10.23;;;15.70;99.90;;;;;;4896461;29;20189;-73
2023/10/10 00:27:23;;;;;;;18.58;9.75;;;15.70;99.90;;;;;;4895142;29;20228;-73
2023/10/10 00:29:49;;;;;;;15.98;9.85;;;15.70;99.90;;;;;;4896478;29;20231;-72
2023/10/10 00:32:26;;;;;;;16.55;9.95;;;15.70;99.90;;;;;;4896600;29;20212;-72
2023/10/10 00:34:52;;;;;;;19.30;10.30;;;15.70;99.90;;;;;;4895112;29;20196;-71
2023/10/10 00:37:29;;;;;;;15.80;10.10;;;15.70;99.90;;;;;;4912737;29;20193;-73
2023/10/10 00:40:00;;;;;;;20.65;10.32;;;15.70;99.90;;;;;;4900117;29;20180;-71
2023/10/10 00:42:41;;;;;;;18.17;10.05;;;15.70;99.90;;;;;;4898814;29;20193;-73
2023/10/10 00:45:14;;;;;;;19.50;10.63;;;15.70;99.90;;;;;;4900346;29;20191;-73
2023/10/10 00:47:48;;;;;;;18.83;9.82;;;15.70;99.90;;;;;;4911276;29;20207;-73
2023/10/10 00:50:18;;;;;;;17.90;9.05;;;15.70;99.90;;;;;;4914474;29;20199;-72
2023/10/10 00:52:48;;;;;;;15.52;9.18;;;15.70;99.90;;;;;;4900003;29;20193;-72
2023/10/10 00:55:21;;;;;;;17.02;9.15;;;15.70;99.90;;;;;;4898852;29;20200;-73
2023/10/10 00:57:52;;;;;;;16.73;9.88;;;15.70;99.90;;;;;;4880259;29;20737;-73
2023/10/10 01:00:20;;;;;;;16.35;9.52;;;15.70;99.90;;;;;;4911605;29;20200;-71
2023/10/10 01:02:47;;;;;;;20.45;9.27;;;15.70;99.90;;;;;;4899629;29;20185;-74
2023/10/10 01:05:13;;;;;;;16.40;9.68;;;15.80;99.90;;;;;;4898064;29;20181;-73
2023/10/10 01:07:41;;;;;;;19.45;9.80;;;15.70;99.90;;;;;;4899579;29;20307;-71
2023/10/10 01:10:13;;;;;;;17.80;9.40;;;15.70;99.90;;;;;;4883806;29;20199;-72
2023/10/10 01:12:40;;;;;;;17.30;9.85;;;15.70;99.90;;;;;;4914098;29;20275;-72
2023/10/10 01:18:39;;;;;;;17.80;9.50;;;15.70;99.90;;;;;;4893532;29;20208;-72
2023/10/10 01:20:56;;;;;;;20.50;9.85;;;15.70;99.90;;;;;;4897380;29;20267;-73
2023/10/10 01:23:27;;;;;;;17.75;9.77;;;15.70;99.90;;;;;;4898014;29;20216;-70
2023/10/10 01:25:56;;;;;;;15.57;9.52;;;15.70;99.90;;;;;;4898765;29;20185;-74
2023/10/10 01:28:27;;;;;;;16.02;9.43;;;15.70;99.90;;;;;;4887143;29;20219;-71
2023/10/10 01:33:25;;;;;;;16.73;8.98;;;15.80;99.90;;;;;;4897685;29;20534;-73
2023/10/10 01:35:55;;;;;;;18.92;10.07;;;15.80;99.90;;;;;;4897839;29;20188;-72
2023/10/10 01:38:55;;;;;;;15.55;9.40;;;15.80;99.90;;;;;;4899041;29;20290;-71
2023/10/10 01:41:31;;;;;;;20.45;9.45;;;15.80;99.90;;;;;;4897532;29;20193;-73
2023/10/10 01:44:10;;;;;;;16.02;10.00;;;15.80;99.90;;;;;;4899045;29;20655;-73
2023/10/10 01:46:36;;;;;;;17.38;9.15;;;15.80;99.90;;;;;;4898664;29;20188;-74
2023/10/10 01:49:02;;;;;;;21.52;9.90;;;15.90;99.90;;;;;;4912391;29;20315;-73
2023/10/10 01:51:33;;;;;;;21.33;10.07;;;15.90;99.90;;;;;;4897694;29;20772;-72
2023/10/10 01:54:00;;;;;;;16.83;10.15;;;15.90;99.90;;;;;;4897314;29;20184;-71
2023/10/10 01:56:27;;;;;;;19.80;10.13;;;15.90;99.90;;;;;;4913437;29;20185;-72
2023/10/10 01:58:54;;;;;;;17.80;9.88;;;15.90;99.90;;;;;;4898023;29;20665;-73
2023/10/10 02:01:23;;;;;;;16.65;10.55;;;15.90;99.90;;;;;;4897508;29;20255;-73
2023/10/10 02:03:50;;;;;;;20.15;10.50;;;16.00;99.90;;;;;;4898694;29;20230;-72
2023/10/10 02:06:28;;;;;;;30.33;9.60;;;16.00;99.90;;;;;;4898077;29;20181;-71
2023/10/10 02:09:10;;;;;;;17.38;10.15;;;16.00;99.90;;;;;;4898260;29;20212;-73
2023/10/10 02:11:38;;;;;;;18.35;9.60;;;16.00;99.90;;;;;;4896700;29;20191;-73
2023/10/10 02:14:11;;;;;;;20.65;10.52;;;16.10;99.90;;;;;;4897201;29;20272;-71
2023/10/10 02:16:40;;;;;;;19.23;9.93;;;16.10;99.90;;;;;;4898429;29;20208;-73
2023/10/10 02:19:15;;;;;;;18.45;9.77;;;16.10;99.90;;;;;;4898026;29;20244;-72
2023/10/10 02:21:48;;;;;;;24.75;10.15;;;16.10;99.90;;;;;;4897609;29;20330;-72
2023/10/10 02:26:56;;;;;;;22.02;10.00;;;16.10;99.90;;;;;;4886688;29;20188;-73
2023/10/10 02:32:06;;;;;;;19.45;10.32;;;16.10;99.90;;;;;;4898337;29;20196;-71
2023/10/10 02:34:34;;;;;;;20.40;10.95;;;16.20;99.90;;;;;;4898132;29;20239;-72
2023/10/10 02:37:13;;;;;;;21.30;11.55;;;16.10;99.90;;;;;;4881734;29;20220;-71
2023/10/10 02:39:42;;;;;;;18.58;11.20;;;16.20;99.90;;;;;;4898081;29;20223;-72
2023/10/10 02:42:19;;;;;;;20.35;11.32;;;16.20;99.90;;;;;;4896385;29;20215;-72
2023/10/10 02:44:46;;;;;;;21.52;11.60;;;16.20;99.90;;;;;;4882560;29;20236;-73
2023/10/10 02:47:14;;;;;;;23.67;10.73;;;16.20;99.90;;;;;;4897566;29;20714;-73
2023/10/10 02:49:42;;;;;;;19.30;11.38;;;16.20;99.90;;;;;;4895689;29;20200;-72
2023/10/10 02:52:14;;;;;;;15.35;10.90;;;16.10;99.90;;;;;;4896614;29;20649;-71
2023/10/10 02:54:53;;;;;;;23.35;11.80;;;16.10;99.90;;;;;;4898028;29;20284;-71
2023/10/10 03:00:15;;;;;;;20.55;11.75;;;16.10;99.90;;;;;;4911089;29;20213;-72
2023/10/10 03:02:53;;;;;;;19.50;11.10;;;16.20;99.90;;;;;;4892942;29;20189;-72
2023/10/10 03:08:13;;;;;;;19.27;11.38;;;16.10;99.90;;;;;;4895763;29;20697;-72
2023/10/10 03:10:45;;;;;;;19.25;12.18;;;16.10;99.90;;;;;;4886122;29;20621;-73
2023/10/10 03:13:35;;;;;;;20.45;12.13;;;16.10;99.90;;;;;;4895956;29;20197;-73
2023/10/10 03:16:41;;;;;;;19.60;12.50;;;16.10;99.90;;;;;;4902357;29;20722;-71
2023/10/10 03:29:12;;;;;;;16.40;12.35;;;16.20;99.90;;;;;;4895825;29;20232;-71
2023/10/10 03:31:46;;;;;;;23.83;12.77;;;16.20;99.90;;;;;;4911355;29;20199;-72
2023/10/10 03:34:30;;;;;;;19.10;12.95;;;16.20;99.90;;;;;;4880703;29;20196;-71
2023/10/10 03:39:49;;;;;;;18.23;12.30;;;16.20;99.90;;;;;;4910975;29;20204;-73
2023/10/10 05:23:48;;;;;;;24.67;15.80;;;15.90;99.90;;;;;;4898026;29;20247;-74
2023/10/10 05:26:18;;;;;;;27.35;15.77;;;15.90;99.90;;;;;;4899137;29;20205;-72
2023/10/10 05:28:45;;;;;;;36.67;16.83;;;15.90;99.90;;;;;;4885786;29;20221;-72
2023/10/10 05:31:11;;;;;;;30.50;17.67;;;16.00;99.90;;;;;;4896232;29;20216;-72
2023/10/10 05:33:38;;;;;;;30.80;18.05;;;15.90;99.90;;;;;;4897038;29;20197;-70
2023/10/10 05:36:06;;;;;;;29.33;17.45;;;16.00;99.90;;;;;;4898342;29;20239;-72
2023/10/10 05:38:39;;;;;;;34.97;21.08;;;16.00;99.90;;;;;;4897391;29;20185;-74
2023/10/10 05:41:12;;;;;;;31.15;20.25;;;15.90;99.90;;;;;;4886779;29;20311;-71
2023/10/10 05:43:39;;;;;;;29.48;19.75;;;15.90;99.90;;;;;;4890919;29;20220;-72
2023/10/10 05:46:05;;;;;;;31.52;20.70;;;16.00;99.90;;;;;;4898149;29;20216;-73
2023/10/10 05:48:32;;;;;;;34.80;22.50;;;15.90;99.90;;;;;;4898596;29;20665;-71
2023/10/10 05:51:03;;;;;;;41.10;23.52;;;16.00;99.90;;;;;;4879753;29;20200;-72
2023/10/10 05:53:33;;;;;;;40.15;23.52;;;15.90;99.90;;;;;;4889450;29;20204;-71
2023/10/10 05:56:12;;;;;;;41.08;24.63;;;16.00;99.90;;;;;;4897959;29;20657;-70
2023/10/10 05:58:42;;;;;;;44.13;24.38;;;16.00;99.90;;;;;;4896650;29;20189;-74
2023/10/10 06:01:12;;;;;;;44.45;25.17;;;16.00;99.90;;;;;;4898674;29;20188;-72
2023/10/10 06:03:40;;;;;;;45.10;26.30;;;16.00;99.90;;;;;;4896686;29;20203;-70
2023/10/10 06:06:06;;;;;;;47.55;27.92;;;16.00;99.90;;;;;;4896723;29;20192;-75
2023/10/10 06:08:32;;;;;;;47.58;29.55;;;16.00;99.90;;;;;;4896764;29;20236;-72
2023/10/10 06:10:59;;;;;;;53.78;28.58;;;16.00;99.90;;;;;;4912652;29;20323;-75
2023/10/10 06:13:26;;;;;;;57.03;30.58;;;16.00;99.90;;;;;;4896507;29;20208;-69
2023/10/10 06:15:51;;;;;;;54.83;30.50;;;16.00;99.90;;;;;;4898337;29;20192;-68
2023/10/10 06:18:18;;;;;;;61.58;32.05;;;16.00;99.90;;;;;;4897979;29;20192;-72
2023/10/10 06:20:47;;;;;;;63.80;34.58;;;16.00;99.90;;;;;;4897601;29;20320;-74
2023/10/10 06:23:20;;;;;;;67.78;35.53;;;16.10;99.90;;;;;;4897163;29;20197;-73
2023/10/10 06:25:47;;;;;;;63.90;35.60;;;16.10;99.90;;;;;;4898031;29;20208;-69
2023/10/10 06:28:22;;;;;;;62.90;35.17;;;16.10;99.90;;;;;;4897385;29;20228;-74
2023/10/10 06:30:52;;;;;;;66.57;34.67;;;16.10;99.90;;;;;;4897359;29;20180;-72
2023/10/10 06:33:28;;;;;;;60.92;32.65;;;16.10;99.90;;;;;;4897561;29;20189;-71
2023/10/10 06:38:59;;;;;;;53.28;30.20;;;16.10;99.90;;;;;;4893673;29;20188;-76
2023/10/10 06:41:35;;;;;;;53.20;29.45;;;16.10;99.90;;;;;;4896265;29;20212;-74
2023/10/10 06:44:04;;;;;;;64.10;30.25;;;16.10;99.90;;;;;;4896906;29;20196;-74
2023/10/10 06:46:32;;;;;;;50.63;29.80;;;16.20;99.90;;;;;;4880791;29;20180;-72
2023/10/10 06:49:04;;;;;;;56.40;30.55;;;16.20;99.90;;;;;;4897150;29;20307;-74
2023/10/10 06:51:30;;;;;;;57.88;29.67;;;16.20;99.90;;;;;;4897535;29;20185;-72
2023/10/10 06:53:56;;;;;;;48.85;29.30;;;16.30;99.90;;;;;;4894619;29;20219;-71
2023/10/10 06:59:27;;;;;;;51.13;28.63;;;16.30;99.90;;;;;;4895872;29;20191;-70
2023/10/10 07:01:59;;;;;;;51.65;29.30;;;16.40;99.90;;;;;;4896856;29;20184;-72
2023/10/10 07:04:28;;;;;;;47.72;28.52;;;16.40;99.90;;;;;;4895992;29;20203;-70
2023/10/10 07:07:00;;;;;;;51.20;29.50;;;16.50;99.90;;;;;;4893404;29;20196;-70
2023/10/10 07:09:29;;;;;;;49.53;27.35;;;16.50;99.90;;;;;;4885326;29;20296;-71
2023/10/10 07:12:02;;;;;;;48.03;26.20;;;16.50;99.90;;;;;;4893979;29;20219;-72
2023/10/10 07:14:28;;;;;;;46.40;26.27;;;16.50;99.90;;;;;;4896945;29;20188;-70
2023/10/10 07:16:56;;;;;;;40.28;25.85;;;16.40;99.90;;;;;;4897295;29;20188;-69
2023/10/10 07:19:32;;;;;;;45.50;24.73;;;16.50;99.90;;;;;;4895339;29;20584;-70
2023/10/10 07:21:59;;;;;;;44.45;25.80;;;16.50;99.90;;;;;;4896576;29;20207;-72
2023/10/10 07:24:28;;;;;;;45.17;24.42;;;16.60;99.90;;;;;;4911070;29;20268;-72
2023/10/10 07:27:05;;;;;;;49.40;24.73;;;16.70;99.90;;;;;;4875310;29;20189;-77
2023/10/10 07:29:57;;;;;;;39.40;23.20;;;16.70;99.90;;;;;;4895341;29;20311;-72
2023/10/10 07:32:17;;;;;;;38.40;23.45;;;16.70;99.90;;;;;;4896460;29;20207;-71
2023/10/10 07:34:50;;;;;;;36.38;23.27;;;16.80;99.90;;;;;;4911447;29;20200;-72
2023/10/10 07:37:22;;;;;;;38.80;23.20;;;16.80;99.90;;;;;;4894459;29;20189;-73
2023/10/10 07:42:36;;;;;;;40.83;22.83;;;16.90;99.90;;;;;;4910536;29;20216;-71
2023/10/10 07:45:44;;;;;;;33.10;23.08;;;17.00;99.90;;;;;;4897132;29;20196;-70
2023/10/10 07:50:26;;;;;;;37.72;21.33;;;17.10;99.90;;;;;;4896745;29;20195;-72
2023/10/10 07:52:56;;;;;;;36.75;21.55;;;17.20;99.90;;;;;;4892064;29;20378;-74
2023/10/10 07:55:22;;;;;;;40.42;23.50;;;17.30;99.90;;;;;;4891906;29;20199;-73
2023/10/10 07:57:59;;;;;;;35.65;24.58;;;17.30;99.90;;;;;;4892560;29;20215;-72
2023/10/10 08:00:38;;;;;;;40.72;26.40;;;17.40;99.90;;;;;;4896063;29;20243;-72
2023/10/10 08:03:12;;;;;;;41.25;27.27;;;17.50;99.90;;;;;;4895943;29;20199;-70
2023/10/10 08:05:42;;;;;;;50.65;29.10;;;17.60;99.90;;;;;;4896327;29;20672;-72
2023/10/10 08:08:13;;;;;;;48.05;29.10;;;17.60;99.90;;;;;;4891727;29;20316;-73
2023/10/10 08:10:39;;;;;;;49.97;29.73;;;17.70;99.90;;;;;;4876667;29;20343;-71
2023/10/10 08:13:11;;;;;;;47.38;28.90;;;17.70;99.90;;;;;;4895910;29;20685;-70
2023/10/10 08:15:56;;;;;;;48.70;29.10;;;17.80;99.90;;;;;;4896319;29;20533;-70
2023/10/10 08:18:49;;;;;;;45.38;30.67;;;17.90;99.90;;;;;;4894538;29;20272;-70
2023/10/10 08:21:16;;;;;;;54.83;31.10;;;17.90;99.90;;;;;;4910462;29;20212;-72
2023/10/10 08:23:43;;;;;;;52.03;31.83;;;18.00;99.90;;;;;;4895907;29;20192;-71
2023/10/10 08:26:17;;;;;;;56.47;31.80;;;18.00;99.90;;;;;;4894984;29;20200;-71
2023/10/10 08:28:48;;;;;;;53.63;32.00;;;18.10;99.90;;;;;;4894945;29;20230;-71
2023/10/10 08:31:14;;;;;;;54.58;31.85;;;18.10;99.90;;;;;;4895616;29;20179;-70
2023/10/10 08:33:46;;;;;;;51.10;31.80;;;18.20;99.90;;;;;;4895794;29;20184;-71
2023/10/10 08:36:23;;;;;;;51.97;30.92;;;18.20;99.90;;;;;;4895109;29;20228;-71
2023/10/10 08:38:56;;;;;;;53.05;31.45;;;18.30;99.90;;;;;;4888774;29;20255;-71
2023/10/10 08:41:27;;;;;;;51.85;30.65;;;18.30;99.90;;;;;;4895601;29;20215;-70
2023/10/10 08:44:06;;;;;;;47.92;30.88;;;18.40;99.90;;;;;;4896147;29;20188;-73
2023/10/10 08:46:40;;;;;;;54.13;31.25;;;18.40;99.90;;;;;;4885733;29;20211;-69
2023/10/10 08:49:07;;;;;;;48.25;30.73;;;18.50;99.90;;;;;;4896082;29;20223;-71
2023/10/10 08:51:34;;;;;;;40.50;29.83;;;18.50;99.90;;;;;;4895408;29;20279;-70
2023/10/10 08:54:09;;;;;;;55.72;35.63;;;18.50;99.90;;;;;;4895206;29;20271;-70
2023/10/10 08:57:02;;;;;;;42.33;30.38;;;18.60;99.90;;;;;;4895766;29;20203;-71
2023/10/10 08:59:32;;;;;;;49.25;30.27;;;18.60;99.90;;;;;;4902174;29;20184;-70
2023/10/10 09:02:06;;;;;;;55.35;31.25;;;18.60;99.90;;;;;;4898829;29;20193;-72
2023/10/10 09:04:33;;;;;;;42.33;28.98;;;18.70;99.90;;;;;;4899505;29;20188;-69
2023/10/10 09:07:01;;;;;;;52.20;29.85;;;18.80;99.90;;;;;;4898938;29;20211;-71
2023/10/10 09:12:14;;;;;;;42.67;28.58;;;18.90;99.90;;;;;;4872160;29;20211;-71
2023/10/10 09:14:51;;;;;;;51.50;29.15;;;19.00;99.90;;;;;;4898961;29;20255;-71
2023/10/10 09:17:28;;;;;;;41.92;28.52;;;19.10;99.90;;;;;;4898963;29;20236;-70
2023/10/10 09:19:57;;;;;;;42.42;28.95;;;19.20;99.90;;;;;;4898797;29;20228;-69
2023/10/10 09:22:42;;;;;;;49.28;30.23;;;19.30;99.90;;;;;;4897929;29;20229;-70
2023/10/10 09:25:26;;;;;;;48.22;31.83;;;19.30;99.90;;;;;;4898763;29;20199;-70
2023/10/10 09:28:15;;;;;;;46.70;31.15;;;19.40;99.90;;;;;;4897042;29;20803;-72
2023/10/10 09:30:45;;;;;;;52.90;33.25;;;19.40;99.90;;;;;;4898863;29;20205;-69
2023/10/10 09:33:28;;;;;;;53.17;32.42;;;19.40;99.90;;;;;;4898556;29;20185;-70
2023/10/10 09:35:59;;;;;;;60.85;35.15;;;19.50;99.90;;;;;;4898394;29;20208;-70
2023/10/10 09:38:36;;;;;;;56.08;35.03;;;19.50;99.90;;;;;;4896221;29;20205;-71
2023/10/10 09:41:26;;;;;;;58.70;34.83;;;19.50;99.90;;;;;;4895982;29;20181;-70
2023/10/10 09:49:45;;;;;;;53.85;33.95;;;19.60;99.90;;;;;;4900926;29;20223;-69
2023/10/10 09:57:43;;;;;;;54.47;32.60;;;19.70;99.90;;;;;;4898232;29;20204;-70
2023/10/10 10:00:13;;;;;;;56.28;33.58;;;19.70;99.90;;;;;;4897167;29;20291;-71
2023/10/10 10:02:49;;;;;;;56.85;33.35;;;19.80;99.90;;;;;;4898424;29;20629;-72
2023/10/10 10:05:21;;;;;;;59.22;33.35;;;19.80;99.90;;;;;;4898602;29;20188;-69
2023/10/10 10:08:13;;;;;;;60.55;33.92;;;19.80;99.90;;;;;;4896330;29;20307;-72
2023/10/10 10:10:54;;;;;;;53.53;32.08;;;19.70;99.90;;;;;;4891495;29;20193;-72
2023/10/10 10:13:26;;;;;;;49.00;31.15;;;19.70;99.90;;;;;;4897387;29;20826;-70
2023/10/10 10:16:25;;;;;;;52.28;30.58;;;19.80;99.90;;;;;;4897657;29;20192;-71
2023/10/10 10:19:11;;;;;;;54.42;31.52;;;19.80;99.90;;;;;;4888925;29;20188;-70
2023/10/10 10:21:52;;;;;;;47.50;29.90;;;19.80;99.90;;;;;;4895236;29;20240;-71
2023/10/10 10:24:28;;;;;;;52.78;30.75;;;19.80;99.90;;;;;;4896148;29;20192;-73
2023/10/10 10:27:24;;;;;;;52.22;31.25;;;19.80;99.90;;;;;;4891308;29;20199;-71
2023/10/10 10:29:55;;;;;;;55.33;31.27;;;19.90;99.90;;;;;;4897765;29;20199;-71
2023/10/10 10:32:24;;;;;;;53.97;31.17;;;19.90;99.90;;;;;;4912221;29;20638;-72
2023/10/10 10:34:56;;;;;;;50.25;30.65;;;19.90;99.90;;;;;;4897312;29;20196;-72
2023/10/10 10:37:24;;;;;;;48.95;30.35;;;20.00;99.90;;;;;;4891566;29;20235;-74
2023/10/10 10:40:41;;;;;;;56.40;31.88;;;20.00;99.90;;;;;;4889574;29;20227;-73
2023/10/10 10:42:53;;;;;;;53.20;30.70;;;20.10;99.90;;;;;;4896058;29;20196;-71
2023/10/10 10:45:44;;;;;;;50.85;30.30;;;20.10;99.90;;;;;;4896705;29;20181;-72
2023/10/10 10:48:34;;;;;;;53.28;31.25;;;20.20;99.90;;;;;;4887041;29;20220;-70
2023/10/10 10:51:41;;;;;;;51.88;30.40;;;20.30;99.90;;;;;;4896518;29;20267;-70
2023/10/10 10:54:35;;;;;;;48.95;29.67;;;20.40;99.90;;;;;;4894709;29;20275;-70
2023/10/10 10:57:02;;;;;;;46.33;28.85;;;20.40;99.90;;;;;;4896754;29;20563;-73
2023/10/10 10:59:44;;;;;;;51.55;29.60;;;20.50;99.90;;;;;;4895186;29;20582;-71
2023/10/10 11:02:15;;;;;;;52.95;29.17;;;20.50;99.90;;;;;;4891561;29;20187;-71
2023/10/10 11:04:49;;;;;;;51.05;29.38;;;20.60;99.90;;;;;;4897230;29;20268;-71
2023/10/10 11:07:27;;;;;;;52.78;30.05;;;20.60;99.90;;;;;;4891612;29;20204;-71
2023/10/10 11:09:54;;;;;;;48.25;29.25;;;20.70;99.90;;;;;;4889268;29;20248;-71
2023/10/10 11:12:31;;;;;;;54.25;29.67;;;20.80;99.90;;;;;;4896905;29;20184;-71
2023/10/10 11:14:58;;;;;;;51.88;29.98;;;20.90;99.90;;;;;;4896757;29;20193;-73
2023/10/10 11:17:24;;;;;;;50.28;29.98;;;21.00;99.90;;;;;;4895504;29;20192;-71
2023/10/10 11:19:57;;;;;;;44.63;28.92;;;21.10;99.90;;;;;;4894013;29;20292;-73
2023/10/10 11:22:39;;;;;;;51.60;29.40;;;21.10;99.90;;;;;;4896101;29;20189;-69
2023/10/10 11:25:11;;;;;;;53.88;29.55;;;21.10;99.90;;;;;;4893536;29;20189;-71
2023/10/10 11:27:43;;;;;;;49.53;29.33;;;21.10;99.90;;;;;;4894945;29;20666;-70
2023/10/10 11:30:24;;;;;;;46.45;29.92;;;21.10;99.90;;;;;;4886537;29;20199;-70
2023/10/10 11:33:00;;;;;;;49.83;28.65;;;21.10;99.90;;;;;;4891699;29;20258;-72
2023/10/10 11:35:26;;;;;;;49.58;28.73;;;21.10;99.90;;;;;;4894853;29;20199;-70
2023/10/10 11:38:15;;;;;;;44.53;27.83;;;21.10;99.90;;;;;;4896150;29;20280;-70
2023/10/10 11:40:43;;;;;;;46.22;28.02;;;21.20;99.90;;;;;;4895938;29;20200;-71
2023/10/10 11:43:11;;;;;;;46.67;27.38;;;21.30;99.90;;;;;;4890113;29;20567;-70
2023/10/10 11:45:51;;;;;;;42.88;28.00;;;21.30;99.90;;;;;;4893896;29;20231;-70
2023/10/10 11:48:17;;;;;;;44.13;26.00;;;21.50;99.90;;;;;;4894785;29;20235;-73
2023/10/10 11:50:56;;;;;;;48.42;26.85;;;21.60;99.90;;;;;;4894894;29;20193;-69
2023/10/10 11:53:29;;;;;;;43.33;27.85;;;21.60;99.90;;;;;;4894223;29;20181;-70
2023/10/10 11:56:01;;;;;;;45.13;26.05;;;21.70;99.90;;;;;;4896349;29;20191;-71
2023/10/10 11:58:36;;;;;;;42.92;25.92;;;21.80;99.90;;;;;;4890922;29;20196;-73
2023/10/10 12:01:06;;;;;;;46.28;25.08;;;21.90;99.90;;;;;;4895440;29;20239;-69
2023/10/10 12:06:19;;;;;;;41.08;25.35;;;21.90;99.90;;;;;;4893786;29;20248;-72
2023/10/10 12:08:50;;;;;;;43.33;25.48;;;21.90;99.90;;;;;;4909354;29;20204;-70
2023/10/10 12:11:19;;;;;;;39.58;25.13;;;21.90;99.90;;;;;;4895194;29;20359;-69
2023/10/10 12:13:47;;;;;;;42.22;25.98;;;21.90;99.90;;;;;;4898514;29;20196;-68
2023/10/10 12:16:14;;;;;;;39.47;24.40;;;22.00;99.90;;;;;;4895858;29;20241;-67
2023/10/10 12:18:52;;;;;;;40.05;25.38;;;22.00;99.90;;;;;;4895049;29;20208;-69
2023/10/10 12:21:22;;;;;;;40.75;25.30;;;22.10;99.90;;;;;;4896068;29;20234;-70
2023/10/10 12:23:53;;;;;;;45.33;25.10;;;22.10;99.90;;;;;;4895579;29;20216;-70
2023/10/10 12:26:21;;;;;;;38.38;25.35;;;22.00;99.90;;;;;;4894618;29;20212;-70
2023/10/10 12:28:48;;;;;;;42.25;25.83;;;22.00;99.90;;;;;;4894487;29;20224;-69
2023/10/10 12:31:17;;;;;;;45.70;24.55;;;21.90;99.90;;;;;;4895903;29;20188;-70
2023/10/10 12:33:48;;;;;;;43.08;24.13;;;21.80;99.90;;;;;;4898335;29;20185;-69
2023/10/10 12:36:18;;;;;;;40.42;23.70;;;21.70;99.90;;;;;;4898967;29;20200;-69
2023/10/10 12:38:44;;;;;;;44.17;25.15;;;21.70;99.90;;;;;;4897026;29;20211;-73
2023/10/10 12:41:20;;;;;;;41.22;24.80;;;21.70;99.90;;;;;;4897549;29;20195;-70
2023/10/10 12:43:47;;;;;;;38.47;23.65;;;21.70;99.90;;;;;;4899476;29;20672;-72
2023/10/10 12:46:17;;;;;;;37.92;22.77;;;21.70;99.90;;;;;;4900536;29;20191;-70
2023/10/10 12:48:46;;;;;;;38.25;22.63;;;21.70;99.90;;;;;;4899898;29;20217;-70
2023/10/10 12:51:13;;;;;;;38.17;23.17;;;21.70;99.90;;;;;;4899966;29;20197;-70
2023/10/10 12:53:39;;;;;;;47.55;23.88;;;21.80;99.90;;;;;;4898344;29;20224;-71
2023/10/10 12:56:10;;;;;;;42.67;23.50;;;21.80;99.90;;;;;;4898783;29;20194;-69
2023/10/10 12:58:42;;;;;;;40.05;24.17;;;21.90;99.90;;;;;;4899108;29;20611;-71
2023/10/10 13:01:22;;;;;;;39.20;22.70;;;21.90;99.90;;;;;;4895314;29;20605;-70
2023/10/10 13:03:48;;;;;;;36.38;22.30;;;21.90;99.90;;;;;;4889119;29;20577;-71
2023/10/10 13:06:15;;;;;;;38.97;22.15;;;21.90;99.90;;;;;;4884606;29;20590;-70
2023/10/10 13:08:48;;;;;;;42.50;23.10;;;22.00;99.90;;;;;;4898172;29;20307;-70
2023/10/10 13:11:15;;;;;;;35.63;22.23;;;22.00;99.90;;;;;;4894059;29;20188;-70
2023/10/10 13:13:56;;;;;;;39.45;21.50;;;22.00;99.90;;;;;;4896028;29;20192;-70
2023/10/10 13:19:21;;;;;;;37.33;20.30;;;22.10;99.90;;;;;;4896741;29;20207;-71
2023/10/10 13:21:48;;;;;;;31.98;19.55;;;22.20;99.90;;;;;;4896539;29;20192;-71
2023/10/10 13:24:14;;;;;;;30.35;18.77;;;22.30;99.90;;;;;;4895908;29;20203;-70
2023/10/10 13:26:42;;;;;;;32.85;18.38;;;22.40;99.90;;;;;;4897773;29;20208;-70
2023/10/10 13:29:08;;;;;;;32.15;19.10;;;22.40;99.90;;;;;;4897561;29;20224;-69
2023/10/10 13:31:35;;;;;;;31.42;18.92;;;22.50;99.90;;;;;;4896322;29;20193;-70
2023/10/10 13:34:02;;;;;;;30.77;18.65;;;22.40;99.90;;;;;;4893937;29;20195;-70
2023/10/10 13:36:28;;;;;;;31.85;19.55;;;22.40;99.90;;;;;;4888600;29;20209;-70
2023/10/10 13:38:59;;;;;;;31.73;18.30;;;22.40;99.90;;;;;;4897209;29;20188;-70
2023/10/10 13:41:28;;;;;;;34.72;18.25;;;22.30;99.90;;;;;;4893119;29;20284;-70
2023/10/10 13:44:02;;;;;;;31.17;18.20;;;22.30;99.90;;;;;;4887941;29;20654;-69
2023/10/10 13:46:32;;;;;;;33.58;18.40;;;22.20;99.90;;;;;;4896939;29;20188;-70
2023/10/10 13:48:59;;;;;;;37.13;19.60;;;22.10;99.90;;;;;;4896079;29;20217;-72
2023/10/10 13:51:28;;;;;;;33.45;19.52;;;22.10;99.90;;;;;;4897940;29;20193;-70
2023/10/10 13:53:56;;;;;;;40.13;21.33;;;22.00;99.90;;;;;;4893274;29;20656;-72
2023/10/10 13:56:22;;;;;;;32.45;19.60;;;22.00;99.90;;;;;;4897802;29;20720;-70
2023/10/10 13:58:48;;;;;;;35.25;20.15;;;22.00;99.90;;;;;;4897855;29;20220;-69
2023/10/10 14:01:25;;;;;;;34.95;20.48;;;22.00;99.90;;;;;;4897223;29;20216;-70
2023/10/10 14:03:57;;;;;;;33.13;19.83;;;22.00;99.90;;;;;;4897526;29;20189;-70
2023/10/10 14:06:26;;;;;;;34.83;19.33;;;22.00;99.90;;;;;;4895892;29;20203;-74
2023/10/10 14:08:53;;;;;;;32.83;19.70;;;22.00;99.90;;;;;;4888927;29;20633;-68
2023/10/10 14:11:23;;;;;;;34.05;20.27;;;22.00;99.90;;;;;;4875034;29;20200;-70
2023/10/10 14:13:53;;;;;;;37.53;20.88;;;22.00;99.90;;;;;;4910533;29;20204;-69
2023/10/10 14:16:20;;;;;;;37.17;20.90;;;21.90;99.90;;;;;;4912598;29;20191;-71
2023/10/10 14:18:49;;;;;;;35.53;20.50;;;22.00;99.90;;;;;;4897757;29;20192;-69
2023/10/10 14:21:17;;;;;;;32.42;20.05;;;21.90;99.90;;;;;;4897601;29;20251;-66
2023/10/10 14:23:47;;;;;;;34.97;20.58;;;21.90;99.90;;;;;;4896175;29;20232;-69
2023/10/10 14:26:13;;;;;;;36.90;20.95;;;21.80;99.90;;;;;;4888491;29;20580;-70
2023/10/10 14:28:50;;;;;;;35.65;20.73;;;21.80;99.90;;;;;;4896441;29;20208;-71
2023/10/10 14:31:27;;;;;;;45.63;22.55;;;21.80;99.90;;;;;;4897608;29;20211;-72
2023/10/10 14:34:00;;;;;;;41.05;21.55;;;21.80;99.90;;;;;;4897058;29;20194;-71
2023/10/10 14:36:27;;;;;;;39.85;21.55;;;21.80;99.90;;;;;;4895840;29;20189;-71
2023/10/10 14:38:53;;;;;;;35.97;21.42;;;21.80;99.90;;;;;;4895537;29;20272;-70
2023/10/10 14:41:21;;;;;;;39.10;21.17;;;21.70;99.90;;;;;;4893052;29;20275;-69
2023/10/10 14:43:52;;;;;;;36.80;21.52;;;21.70;99.90;;;;;;4896671;29;20649;-68
2023/10/10 14:46:44;;;;;;;39.95;22.08;;;21.70;99.90;;;;;;4896809;29;20192;-70
2023/10/10 14:49:16;;;;;;;35.50;21.42;;;21.60;99.90;;;;;;4893772;29;20315;-70
2023/10/10 14:51:48;;;;;;;37.78;21.33;;;21.60;99.90;;;;;;4896405;29;20196;-70
2023/10/10 14:54:19;;;;;;;40.33;21.50;;;21.60;99.90;;;;;;4896169;29;20177;-72
2023/10/10 14:56:51;;;;;;;38.50;21.05;;;21.50;99.90;;;;;;4896210;29;20248;-70
2023/10/10 14:59:19;;;;;;;33.15;20.10;;;21.50;99.90;;;;;;4896366;29;20226;-69
2023/10/10 15:01:48;;;;;;;39.58;21.08;;;21.50;99.90;;;;;;4895379;29;20201;-68
2023/10/10 15:04:18;;;;;;;40.88;20.55;;;21.50;99.90;;;;;;4895256;29;20208;-71
2023/10/10 15:06:45;;;;;;;33.85;20.38;;;21.50;99.90;;;;;;4895390;29;20197;-72
2023/10/10 15:09:13;;;;;;;42.28;21.25;;;21.50;99.90;;;;;;4896314;29;20287;-69
2023/10/10 15:11:43;;;;;;;31.75;19.67;;;21.50;99.90;;;;;;4889517;29;20276;-70
2023/10/10 15:14:10;;;;;;;36.28;21.73;;;21.60;99.90;;;;;;4896597;29;20220;-71
2023/10/10 15:16:37;;;;;;;36.33;20.33;;;21.60;99.90;;;;;;4895078;29;20279;-72
2023/10/10 15:19:07;;;;;;;34.70;20.13;;;21.60;99.90;;;;;;4888174;29;20194;-71
2023/10/10 15:21:34;;;;;;;33.20;21.50;;;21.60;99.90;;;;;;4893424;29;20213;-70
2023/10/10 15:24:00;;;;;;;39.83;21.25;;;21.60;99.90;;;;;;4895752;29;20267;-69
2023/10/10 15:26:27;;;;;;;34.13;20.58;;;21.50;99.90;;;;;;4895762;29;20275;-70
2023/10/10 15:28:54;;;;;;;35.80;21.50;;;21.40;99.90;;;;;;4910837;29;20235;-69
2023/10/10 15:31:24;;;;;;;37.38;22.90;;;21.40;99.90;;;;;;4896077;29;20219;-71
2023/10/10 15:33:57;;;;;;;41.33;22.95;;;21.40;99.90;;;;;;4896313;29;20188;-71
2023/10/10 15:36:24;;;;;;;41.20;22.25;;;21.30;99.90;;;;;;4895901;29;20183;-70